»·PEaware :: N413C KCRQ-KSNA

N413C :: KCRQ-KSNA

FLIGHT INFORMATION

Flight Status: Arrived
Operator: Privately registered:
United States
More flights under this callsign
Pilot: Alec D. (17934)
Aircraft: PIPER PA-28 CHEROKEE ARCHER
(P28A)
More flights by this aircraft type
Origin: KCRQ McClellan-Palomar
United States
Destination: KSNA John Wayne-Orange Co
United States
More flights between these airports :: More routes between these airports
Route: OCN V23 SLI
File this flight plan on PilotEdge
Remarks:
Altitude:
(Current/Filed)
6,000ft
Speed:
(Current/Filed)
105kts
Departed: 15-Jun-18 08:09 AM
Arrived: 15-Jun-18 08:41 AM
Distance/Time
Traveled:
44nm/0:32
Distance/Time
To Go:
Arrived

Flight Plot

Page will automatically refresh every two minutes.


Map Options




Map Legend


Flown Route
Filed Route
Departure Airport
Arrival Airport
Navaid (VOR, NDB)
Fix

Horizontal Profiles

Position Reports

Time Latitude Longitude Heading Altitude Ground
Speed
15-Jun-18 07:53 33.127069 -117.277832 257 333ft 0kts
15-Jun-18 07:54 33.127069 -117.277832 257 333ft 0kts
15-Jun-18 07:55 33.127069 -117.277833 257 333ft 0kts
15-Jun-18 07:56 33.127069 -117.277836 257 333ft 0kts
15-Jun-18 07:57 33.127068 -117.277839 257 333ft 0kts
15-Jun-18 07:58 33.127068 -117.277842 257 333ft 0kts
15-Jun-18 07:59 33.127067 -117.277845 257 333ft 0kts
15-Jun-18 08:00 33.127066 -117.277848 257 333ft 0kts
15-Jun-18 08:01 33.127066 -117.277851 257 333ft 0kts
15-Jun-18 08:02 33.127852 -117.276358 87 333ft 15kts
15-Jun-18 08:03 33.128276 -117.272099 341 333ft 0kts
15-Jun-18 08:04 33.128288 -117.272104 341 333ft 0kts
15-Jun-18 08:05 33.128291 -117.272105 341 333ft 0kts
15-Jun-18 08:06 33.128293 -117.272106 341 333ft 0kts
15-Jun-18 08:07 33.128834 -117.272349 346 333ft 0kts
15-Jun-18 08:08 33.128923 -117.272372 348 333ft 4kts
15-Jun-18 08:09 33.127384 -117.288876 262 669ft 84kts
15-Jun-18 08:10 33.125538 -117.317397 265 1365ft 87kts
15-Jun-18 08:11 33.122833 -117.345613 261 2000ft 86kts
15-Jun-18 08:12 33.120629 -117.374384 255 2561ft 83kts
15-Jun-18 08:13 33.123051 -117.401264 321 3064ft 88kts
15-Jun-18 08:14 33.144142 -117.405035 355 3382ft 95kts
15-Jun-18 08:15 33.169952 -117.407593 350 3834ft 92kts
15-Jun-18 08:16 33.195504 -117.411621 352 4278ft 90kts
15-Jun-18 08:17 33.220839 -117.415610 347 4662ft 91kts
15-Jun-18 08:18 33.242869 -117.428804 314 5018ft 90kts
15-Jun-18 08:19 33.262004 -117.447960 309 5447ft 88kts
15-Jun-18 08:20 33.280508 -117.467744 313 5858ft 89kts
15-Jun-18 08:21 33.300529 -117.488936 312 6018ft 104kts
15-Jun-18 08:22 33.323869 -117.513100 315 5965ft 110kts
15-Jun-18 08:23 33.346519 -117.537492 308 5998ft 109kts
15-Jun-18 08:24 33.367705 -117.564007 308 5995ft 110kts
15-Jun-18 08:25 33.389071 -117.590373 309 5994ft 110kts
15-Jun-18 08:26 33.410173 -117.616895 308 5992ft 110kts
15-Jun-18 08:27 33.430886 -117.644352 307 5966ft 111kts
15-Jun-18 08:28 33.452166 -117.670833 310 5972ft 110kts
15-Jun-18 08:29 33.474464 -117.696029 309 6007ft 107kts
15-Jun-18 08:30 33.495548 -117.722718 310 5977ft 111kts
15-Jun-18 08:31 33.527599 -117.734643 346 5436ft 127kts
15-Jun-18 08:32 33.562564 -117.741814 349 4767ft 128kts
15-Jun-18 08:33 33.597870 -117.749464 347 4018ft 130kts
15-Jun-18 08:34 33.630178 -117.756316 351 3938ft 113kts
15-Jun-18 08:35 33.663092 -117.764337 344 3294ft 124kts
15-Jun-18 08:36 33.695829 -117.778205 339 2394ft 122kts
15-Jun-18 08:37 33.724174 -117.795669 303 1600ft 123kts
15-Jun-18 08:38 33.719865 -117.832150 246 981ft 87kts
15-Jun-18 08:39 33.702824 -117.849635 208 518ft 82kts
15-Jun-18 08:40 33.683698 -117.861900 208 133ft 71kts
15-Jun-18 08:41 33.673988 -117.867563 118 58ft 11kts
15-Jun-18 08:42 33.673927 -117.867439 121 58ft 0kts
15-Jun-18 08:43 33.672081 -117.868278 225 58ft 19kts
15-Jun-18 08:44 33.667614 -117.872589 214 58ft 21kts
15-Jun-18 08:45 33.666963 -117.872611 33 58ft 0kts
15-Jun-18 08:46 33.666963 -117.872611 33 58ft 0kts
15-Jun-18 08:47 33.666963 -117.872611 33 58ft 0kts

Navigation Log

Ident Type
Flight plan parsing failed, navigation log unavailable